Time;durP1;ratioP1;P1;durP2;ratioP2;P2;SDS_P1;SDS_P2;PMS_P1;PMS_P2;Temp;Humidity;BMP_temperature;BMP_pressure;BME280_temperature;BME280_humidity;BME280_pressure;Samples;Min_cycle;Max_cycle;Signal;HPM_P1;HPM_P2
2020/12/01 00:00:27;;;;;;;;;;;;;;;;;;5051441;28;20018;-71
2020/12/01 00:02:53;;;;;;;;;;;;;;;;;;5052043;28;19996;-71
2020/12/01 00:05:19;;;;;;;;;;;;;;;;;;5053054;28;19908;-71
2020/12/01 00:07:45;;;;;;;;;;;;;;;;;;5052787;28;19963;-69
2020/12/01 00:10:12;;;;;;;;;;;;;;;;;;5042815;28;19955;-70
2020/12/01 00:12:38;;;;;;;;;;;;;;;;;;5051950;28;19909;-71
2020/12/01 00:15:04;;;;;;;;;;;;;;;;;;5051425;28;19913;-71
2020/12/01 00:17:30;;;;;;;;;;;;;;;;;;5052459;28;20337;-72
2020/12/01 00:19:56;;;;;;;;;;;;;;;;;;5052251;28;19952;-71
2020/12/01 00:22:22;;;;;;;;;;;;;;;;;;5052893;28;19996;-71
2020/12/01 00:24:48;;;;;;;;;;;;;;;;;;5051107;28;20291;-71
2020/12/01 00:27:14;;;;;;;;;;;;;;;;;;5051266;28;19917;-71
2020/12/01 00:29:40;;;;;;;;;;;;;;;;;;5052428;28;19916;-71
2020/12/01 00:32:05;;;;;;;;;;;;;;;;;;5051362;28;20323;-71
2020/12/01 00:34:31;;;;;;;;;;;;;;;;;;5052609;28;19908;-71
2020/12/01 00:36:57;;;;;;;;;;;;;;;;;;5048057;28;19987;-71
2020/12/01 00:39:23;;;;;;;;;;;;;;;;;;5042457;28;19971;-70
2020/12/01 00:41:49;;;;;;;;;;;;;;;;;;5051131;28;20372;-71
2020/12/01 00:44:15;;;;;;;;;;;;;;;;;;5052365;28;19999;-71
2020/12/01 00:46:41;;;;;;;;;;;;;;;;;;5050944;28;20003;-71
2020/12/01 00:49:07;;;;;;;;;;;;;;;;;;5052289;28;20440;-72
2020/12/01 00:51:33;;;;;;;;;;;;;;;;;;5052304;28;19928;-71
2020/12/01 00:53:59;;;;;;;;;;;;;;;;;;5050537;28;19913;-71
2020/12/01 00:56:25;;;;;;;;;;;;;;;;;;5052298;28;19967;-71
2020/12/01 00:58:51;;;;;;;;;;;;;;;;;;5051750;28;19915;-71
2020/12/01 01:01:17;;;;;;;;;;;;;;;;;;5050458;28;20323;-71
2020/12/01 01:03:43;;;;;;;;;;;;;;;;;;5050695;28;19952;-70
2020/12/01 01:06:09;;;;;;;;;;;;;;;;;;5052013;28;19963;-71
2020/12/01 01:08:34;;;;;;;;;;;;;;;;;;5042474;28;19956;-71
2020/12/01 01:11:00;;;;;;;;;;;;;;;;;;5048632;28;19991;-71
2020/12/01 01:13:26;;;;;;;;;;;;;;;;;;5049954;28;19935;-71
2020/12/01 01:15:52;;;;;;;;;;;;;;;;;;5051653;28;19999;-71
2020/12/01 01:18:18;;;;;;;;;;;;;;;;;;5051616;28;19916;-71
2020/12/01 01:20:44;;;;;;;;;;;;;;;;;;5050612;28;19936;-71
2020/12/01 01:23:10;;;;;;;;;;;;;;;;;;5051367;28;19951;-71
2020/12/01 01:25:36;;;;;;;;;;;;;;;;;;5051588;28;20000;-72
2020/12/01 01:28:02;;;;;;;;;;;;;;;;;;5050098;28;19985;-71
2020/12/01 01:30:28;;;;;;;;;;;;;;;;;;5050144;28;19909;-71
2020/12/01 01:32:53;;;;;;;;;;;;;;;;;;5050338;28;20399;-70
2020/12/01 01:35:19;;;;;;;;;;;;;;;;;;5048617;28;19912;-70
2020/12/01 01:37:45;;;;;;;;;;;;;;;;;;5039149;28;19909;-71
2020/12/01 01:40:11;;;;;;;;;;;;;;;;;;5048386;28;19913;-71
2020/12/01 01:42:37;;;;;;;;;;;;;;;;;;5051641;28;19916;-71
2020/12/01 01:45:03;;;;;;;;;;;;;;;;;;5049976;28;19948;-71
2020/12/01 01:47:29;;;;;;;;;;;;;;;;;;5051383;28;19967;-71
2020/12/01 01:49:55;;;;;;;;;;;;;;;;;;5050319;28;19909;-71
2020/12/01 01:52:21;;;;;;;;;;;;;;;;;;5049842;28;19955;-71
2020/12/01 01:54:47;;;;;;;;;;;;;;;;;;5051172;28;20050;-71
2020/12/01 01:57:13;;;;;;;;;;;;;;;;;;5051271;28;20418;-71
2020/12/01 01:59:39;;;;;;;;;;;;;;;;;;5050762;28;19966;-71
2020/12/01 02:02:04;;;;;;;;;;;;;;;;;;5043724;28;20006;-72
2020/12/01 02:04:30;;;;;;;;;;;;;;;;;;5043836;28;19958;-71
2020/12/01 02:06:56;;;;;;;;;;;;;;;;;;5051075;28;20372;-71
2020/12/01 02:09:22;;;;;;;;;;;;;;;;;;5051384;28;20398;-72
2020/12/01 02:11:48;;;;;;;;;;;;;;;;;;5051306;28;19909;-71
2020/12/01 02:14:14;;;;;;;;;;;;;;;;;;5049846;28;19921;-71
2020/12/01 02:16:40;;;;;;;;;;;;;;;;;;5045804;28;19992;-71
2020/12/01 02:19:06;;;;;;;;;;;;;;;;;;5050957;28;19915;-71
2020/12/01 02:21:32;;;;;;;;;;;;;;;;;;5040788;28;19909;-72
2020/12/01 02:23:58;;;;;;;;;;;;;;;;;;5043794;28;19941;-71
2020/12/01 02:26:24;;;;;;;;;;;;;;;;;;5046703;28;19948;-72
2020/12/01 02:28:50;;;;;;;;;;;;;;;;;;5046003;28;20403;-72
2020/12/01 02:31:16;;;;;;;;;;;;;;;;;;5054844;28;20295;-72
2020/12/01 02:33:41;;;;;;;;;;;;;;;;;;5053688;28;19909;-72
2020/12/01 02:36:07;;;;;;;;;;;;;;;;;;5051003;28;19916;-71
2020/12/01 02:38:33;;;;;;;;;;;;;;;;;;5054721;28;20033;-72
2020/12/01 02:40:59;;;;;;;;;;;;;;;;;;5063240;28;20011;-71
2020/12/01 02:43:25;;;;;;;;;;;;;;;;;;5061982;28;19953;-71
2020/12/01 02:45:51;;;;;;;;;;;;;;;;;;5051165;28;19944;-72
2020/12/01 02:48:17;;;;;;;;;;;;;;;;;;5034719;28;20448;-71
2020/12/01 02:50:43;;;;;;;;;;;;;;;;;;5034608;28;20313;-71
2020/12/01 02:53:09;;;;;;;;;;;;;;;;;;5033356;28;20442;-72
2020/12/01 02:55:35;;;;;;;;;;;;;;;;;;5034891;28;20012;-71
2020/12/01 02:58:01;;;;;;;;;;;;;;;;;;5034455;28;20007;-72
2020/12/01 03:00:26;;;;;;;;;;;;;;;;;;5034007;28;20365;-71
2020/12/01 03:02:52;;;;;;;;;;;;;;;;;;5034560;28;19909;-72
2020/12/01 03:05:18;;;;;;;;;;;;;;;;;;5034138;28;19913;-72
2020/12/01 03:07:44;;;;;;;;;;;;;;;;;;5033201;28;20280;-71
2020/12/01 03:10:10;;;;;;;;;;;;;;;;;;5052107;28;19915;-72
2020/12/01 03:12:36;;;;;;;;;;;;;;;;;;5054217;28;19971;-72
2020/12/01 03:15:04;;;;;;;;;;;;;;;;;;5052799;28;20019;-72
2020/12/01 03:17:30;;;;;;;;;;;;;;;;;;5052584;28;19908;-71
2020/12/01 03:19:56;;;;;;;;;;;;;;;;;;5053927;28;20015;-72
2020/12/01 03:22:22;;;;;;;;;;;;;;;;;;5052797;28;20398;-72
2020/12/01 03:24:48;;;;;;;;;;;;;;;;;;5053809;28;19917;-71
2020/12/01 03:27:14;;;;;;;;;;;;;;;;;;5052607;28;19917;-71
2020/12/01 03:29:40;;;;;;;;;;;;;;;;;;5052542;28;19915;-71
2020/12/01 03:32:06;;;;;;;;;;;;;;;;;;5054170;28;19908;-71
2020/12/01 03:34:31;;;;;;;;;;;;;;;;;;5053727;28;19909;-71
2020/12/01 03:36:57;;;;;;;;;;;;;;;;;;5052985;28;19909;-71
2020/12/01 03:39:23;;;;;;;;;;;;;;;;;;5039921;28;19951;-71
2020/12/01 03:41:49;;;;;;;;;;;;;;;;;;5045130;28;19971;-71
2020/12/01 03:44:15;;;;;;;;;;;;;;;;;;5053585;28;19915;-72
2020/12/01 03:46:41;;;;;;;;;;;;;;;;;;5053495;28;19912;-72
2020/12/01 03:49:07;;;;;;;;;;;;;;;;;;5053403;28;20403;-72
2020/12/01 03:51:33;;;;;;;;;;;;;;;;;;5052112;28;19908;-72
2020/12/01 03:53:59;;;;;;;;;;;;;;;;;;5053122;28;19909;-72
2020/12/01 03:56:25;;;;;;;;;;;;;;;;;;5053399;28;19952;-72
2020/12/01 03:58:51;;;;;;;;;;;;;;;;;;5051804;28;19916;-72
2020/12/01 04:01:16;;;;;;;;;;;;;;;;;;5053113;28;19940;-72
2020/12/01 04:03:42;;;;;;;;;;;;;;;;;;5051845;28;20365;-72
2020/12/01 04:06:08;;;;;;;;;;;;;;;;;;5053406;28;19908;-72
2020/12/01 04:08:34;;;;;;;;;;;;;;;;;;5050802;28;19963;-72
2020/12/01 04:11:00;;;;;;;;;;;;;;;;;;5038463;28;19959;-71
2020/12/01 04:13:27;;;;;;;;;;;;;;;;;;5032940;28;19909;-72
2020/12/01 04:15:52;;;;;;;;;;;;;;;;;;5033017;28;19910;-72
2020/12/01 04:18:18;;;;;;;;;;;;;;;;;;5031207;28;19996;-72
2020/12/01 04:20:44;;;;;;;;;;;;;;;;;;5033030;28;20565;-72
2020/12/01 04:23:10;;;;;;;;;;;;;;;;;;5031472;28;19913;-71
2020/12/01 04:25:36;;;;;;;;;;;;;;;;;;5032635;28;20373;-72
2020/12/01 04:28:05;;;;;;;;;;;;;;;;;;5032471;28;20400;-72
2020/12/01 04:30:31;;;;;;;;;;;;;;;;;;5032785;28;19909;-72
2020/12/01 04:32:57;;;;;;;;;;;;;;;;;;5032482;28;19965;-72
2020/12/01 04:35:23;;;;;;;;;;;;;;;;;;5032765;28;19913;-72
2020/12/01 04:37:48;;;;;;;;;;;;;;;;;;5032401;28;19991;-72
2020/12/01 04:40:14;;;;;;;;;;;;;;;;;;5038115;28;20024;-72
2020/12/01 04:42:40;;;;;;;;;;;;;;;;;;5046322;28;20346;-71
2020/12/01 04:45:06;;;;;;;;;;;;;;;;;;5052376;28;19956;-72
2020/12/01 04:47:32;;;;;;;;;;;;;;;;;;5051440;28;19913;-72
2020/12/01 04:49:58;;;;;;;;;;;;;;;;;;5051121;28;20042;-72
2020/12/01 04:52:24;;;;;;;;;;;;;;;;;;5052250;28;20056;-72
2020/12/01 04:54:50;;;;;;;;;;;;;;;;;;5050963;28;19913;-72
2020/12/01 04:57:16;;;;;;;;;;;;;;;;;;5051978;28;19909;-71
2020/12/01 04:59:42;;;;;;;;;;;;;;;;;;5051914;28;19964;-71
2020/12/01 05:02:08;;;;;;;;;;;;;;;;;;5051240;28;19966;-72
2020/12/01 05:04:34;;;;;;;;;;;;;;;;;;5051692;28;19920;-70
2020/12/01 05:09:26;;;;;;;;;;;;;;;;;;5043367;28;19952;-71
2020/12/01 05:11:53;;;;;;;;;;;;;;;;;;5050443;28;19916;-72
2020/12/01 05:14:20;;;;;;;;;;;;;;;;;;5064627;22;19960;-75
2020/12/01 05:16:46;;;;;;;;;;;;;;;;;;5052374;28;19966;-76
2020/12/01 05:19:12;;;;;;;;;;;;;;;;;;5054123;28;19916;-75
2020/12/01 05:21:41;;;;;;;;;;;;;;;;;;5020231;28;19956;-75
2020/12/01 05:24:07;;;;;;;;;;;;;;;;;;5011977;28;19917;-76
2020/12/01 05:26:33;;;;;;;;;;;;;;;;;;5013174;28;19909;-75
2020/12/01 05:28:59;;;;;;;;;;;;;;;;;;5011832;28;19925;-76
2020/12/01 05:31:25;;;;;;;;;;;;;;;;;;5011811;28;19916;-76
2020/12/01 05:33:51;;;;;;;;;;;;;;;;;;5012590;28;20291;-75
2020/12/01 05:36:17;;;;;;;;;;;;;;;;;;5011489;28;19913;-76
2020/12/01 05:38:43;;;;;;;;;;;;;;;;;;5011820;28;19920;-75
2020/12/01 05:41:09;;;;;;;;;;;;;;;;;;5011773;28;19909;-75
2020/12/01 05:43:35;;;;;;;;;;;;;;;;;;5011658;28;20367;-75
2020/12/01 05:46:01;;;;;;;;;;;;;;;;;;5023660;28;19916;-75
2020/12/01 05:48:27;;;;;;;;;;;;;;;;;;5044820;28;20024;-76
2020/12/01 05:50:54;;;;;;;;;;;;;;;;;;5013416;28;19914;-75
2020/12/01 05:53:20;;;;;;;;;;;;;;;;;;5045080;28;19917;-75
2020/12/01 05:55:46;;;;;;;;;;;;;;;;;;5013132;28;19917;-76
2020/12/01 05:58:12;;;;;;;;;;;;;;;;;;5044234;28;19917;-75
2020/12/01 06:00:38;;;;;;;;;;;;;;;;;;5013316;28;20422;-76
2020/12/01 06:03:04;;;;;;;;;;;;;;;;;;5045068;28;19914;-75
2020/12/01 06:05:30;;;;;;;;;;;;;;;;;;5045151;28;19936;-76
2020/12/01 06:07:56;;;;;;;;;;;;;;;;;;5047261;28;20275;-76
2020/12/01 06:10:22;;;;;;;;;;;;;;;;;;5028380;28;19924;-75
2020/12/01 06:12:48;;;;;;;;;;;;;;;;;;5029645;23;19926;-79
2020/12/01 06:15:14;;;;;;;;;;;;;;;;;;5036016;28;19936;-79
2020/12/01 06:17:40;;;;;;;;;;;;;;;;;;5037012;28;19940;-79
2020/12/01 06:20:05;;;;;;;;;;;;;;;;;;5038236;28;20489;-78
2020/12/01 06:22:31;;;;;;;;;;;;;;;;;;5033610;28;19909;-77
2020/12/01 06:24:57;;;;;;;;;;;;;;;;;;5034972;28;19909;-78
2020/12/01 06:27:23;;;;;;;;;;;;;;;;;;5035654;28;19936;-78
2020/12/01 06:29:49;;;;;;;;;;;;;;;;;;5041930;28;19893;-77
2020/12/01 06:32:15;;;;;;;;;;;;;;;;;;5033945;28;19917;-77
2020/12/01 06:34:41;;;;;;;;;;;;;;;;;;5022722;28;19920;-78
2020/12/01 06:37:07;;;;;;;;;;;;;;;;;;5033708;28;19932;-78
2020/12/01 06:39:33;;;;;;;;;;;;;;;;;;5047288;28;19921;-78
2020/12/01 06:41:59;;;;;;;;;;;;;;;;;;5047115;28;19909;-77
2020/12/01 06:44:25;;;;;;;;;;;;;;;;;;5044061;28;19924;-77
2020/12/01 06:46:51;;;;;;;;;;;;;;;;;;5039766;28;19909;-78
2020/12/01 06:49:17;;;;;;;;;;;;;;;;;;5051943;28;19984;-77
2020/12/01 06:51:42;;;;;;;;;;;;;;;;;;5052740;28;19917;-78
2020/12/01 06:54:08;;;;;;;;;;;;;;;;;;5037345;28;19928;-77
2020/12/01 06:56:34;;;;;;;;;;;;;;;;;;5036667;28;19909;-77
2020/12/01 06:59:00;;;;;;;;;;;;;;;;;;5025221;28;20385;-77
2020/12/01 07:01:26;;;;;;;;;;;;;;;;;;5027240;28;19955;-77
2020/12/01 07:03:52;;;;;;;;;;;;;;;;;;5030964;28;20333;-78
2020/12/01 07:06:21;;;;;;;;;;;;;;;;;;5031128;28;19978;-78
2020/12/01 07:08:47;;;;;;;;;;;;;;;;;;5024896;28;19917;-78
2020/12/01 07:11:13;;;;;;;;;;;;;;;;;;5030121;28;20418;-77
2020/12/01 07:13:39;;;;;;;;;;;;;;;;;;5032128;28;20008;-78
2020/12/01 07:16:05;;;;;;;;;;;;;;;;;;5034357;28;19913;-78
2020/12/01 07:18:31;;;;;;;;;;;;;;;;;;5034345;28;19909;-78
2020/12/01 07:20:57;;;;;;;;;;;;;;;;;;5032918;28;19996;-77
2020/12/01 07:23:23;;;;;;;;;;;;;;;;;;5036043;28;20034;-77
2020/12/01 07:25:49;;;;;;;;;;;;;;;;;;5035838;28;20330;-78
2020/12/01 07:28:15;;;;;;;;;;;;;;;;;;5035723;28;19917;-77
2020/12/01 07:30:41;;;;;;;;;;;;;;;;;;5034025;28;19913;-78
2020/12/01 07:33:07;;;;;;;;;;;;;;;;;;5037135;28;19972;-78
2020/12/01 07:35:33;;;;;;;;;;;;;;;;;;5037741;28;19913;-77
2020/12/01 07:37:59;;;;;;;;;;;;;;;;;;5035748;28;19955;-78
2020/12/01 07:40:25;;;;;;;;;;;;;;;;;;5035567;28;19909;-78
2020/12/01 07:42:51;;;;;;;;;;;;;;;;;;5037075;28;19909;-77
2020/12/01 07:45:16;;;;;;;;;;;;;;;;;;5033236;28;19909;-78
2020/12/01 07:47:42;;;;;;;;;;;;;;;;;;5034515;28;19956;-77
2020/12/01 07:50:08;;;;;;;;;;;;;;;;;;5033246;28;19972;-77
2020/12/01 07:52:34;;;;;;;;;;;;;;;;;;5034703;28;19947;-77
2020/12/01 07:55:00;;;;;;;;;;;;;;;;;;5034755;28;19959;-77
2020/12/01 07:57:26;;;;;;;;;;;;;;;;;;5013922;28;19913;-76
2020/12/01 07:59:52;;;;;;;;;;;;;;;;;;5014112;28;20421;-76
2020/12/01 08:02:18;;;;;;;;;;;;;;;;;;5025733;28;20282;-78
2020/12/01 08:04:44;;;;;;;;;;;;;;;;;;5035077;28;19910;-77
2020/12/01 08:07:09;;;;;;;;;;;;;;;;;;5034114;28;19909;-76
2020/12/01 08:09:35;;;;;;;;;;;;;;;;;;5039212;28;19948;-77
2020/12/01 08:12:02;;;;;;;;;;;;;;;;;;5031992;28;19940;-78
2020/12/01 08:14:28;;;;;;;;;;;;;;;;;;5031987;28;19917;-77
2020/12/01 08:16:53;;;;;;;;;;;;;;;;;;5032099;28;20322;-78
2020/12/01 08:19:19;;;;;;;;;;;;;;;;;;5033081;28;20012;-76
2020/12/01 08:21:45;;;;;;;;;;;;;;;;;;5032847;28;19944;-77
2020/12/01 08:24:11;;;;;;;;;;;;;;;;;;5031887;28;19955;-76
2020/12/01 08:26:37;;;;;;;;;;;;;;;;;;5033239;28;20339;-77
2020/12/01 08:29:03;;;;;;;;;;;;;;;;;;5032860;28;20003;-77
2020/12/01 08:31:29;;;;;;;;;;;;;;;;;;5031833;28;19909;-77
2020/12/01 08:34:00;;;;;;;;;;;;;;;;;;5032889;28;20370;-76
2020/12/01 08:36:26;;;;;;;;;;;;;;;;;;5033507;28;20409;-77
2020/12/01 08:38:52;;;;;;;;;;;;;;;;;;5031283;28;19909;-76
2020/12/01 08:41:18;;;;;;;;;;;;;;;;;;5033097;28;20329;-77
2020/12/01 08:43:44;;;;;;;;;;;;;;;;;;5032938;28;19962;-77
2020/12/01 08:46:10;;;;;;;;;;;;;;;;;;5032927;28;20430;-77
2020/12/01 08:48:38;;;;;;;;;;;;;;;;;;5030771;28;19921;-77
2020/12/01 08:51:04;;;;;;;;;;;;;;;;;;5016247;28;19952;-77
2020/12/01 08:53:30;;;;;;;;;;;;;;;;;;5018430;28;19909;-77
2020/12/01 08:55:56;;;;;;;;;;;;;;;;;;5013271;28;19917;-76
2020/12/01 08:58:25;;;;;;;;;;;;;;;;;;5012931;28;20390;-77
2020/12/01 09:00:51;;;;;;;;;;;;;;;;;;5012611;28;19969;-76
2020/12/01 09:03:17;;;;;;;;;;;;;;;;;;5028194;28;19913;-77
2020/12/01 09:05:43;;;;;;;;;;;;;;;;;;5032806;28;19924;-77
2020/12/01 09:08:15;;;;;;;;;;;;;;;;;;5031910;28;19956;-77
2020/12/01 09:10:41;;;;;;;;;;;;;;;;;;5032304;28;20079;-77
2020/12/01 09:15:47;;;;;;;;;;;;;;;;;;5032562;28;19913;-79
2020/12/01 09:20:56;;;;;;;;;;;;;;;;;;5032396;28;19999;-77
2020/12/01 09:23:22;;;;;;;;;;;;;;;;;;5032154;28;19995;-77
2020/12/01 09:25:48;;;;;;;;;;;;;;;;;;5033127;28;19960;-76
2020/12/01 09:28:14;;;;;;;;;;;;;;;;;;5032620;28;20050;-77
2020/12/01 09:30:39;;;;;;;;;;;;;;;;;;5031266;28;20416;-77
2020/12/01 09:33:05;;;;;;;;;;;;;;;;;;5033319;28;19956;-77
2020/12/01 09:35:31;;;;;;;;;;;;;;;;;;5031181;28;19909;-78
2020/12/01 09:37:57;;;;;;;;;;;;;;;;;;5032008;28;19909;-76
2020/12/01 09:40:26;;;;;;;;;;;;;;;;;;5028451;28;19920;-76
2020/12/01 09:42:54;;;;;;;;;;;;;;;;;;5024706;28;19910;-76
2020/12/01 09:45:28;;;;;;;;;;;;;;;;;;5021812;28;20283;-76
2020/12/01 09:48:05;;;;;;;;;;;;;;;;;;5024264;28;19917;-75
2020/12/01 09:50:31;;;;;;;;;;;;;;;;;;5024134;28;19910;-77
2020/12/01 09:58:47;;;;;;;;;;;;;;;;;;5012954;28;19913;-77
2020/12/01 10:02:50;;;;;;;;;;;;;;;;;;5026310;28;19979;-77
2020/12/01 10:04:59;;;;;;;;;;;;;;;;;;5021726;28;19914;-78
2020/12/01 10:12:44;;;;;;;;;;;;;;;;;;5031203;28;19917;-77
2020/12/01 10:32:22;;;;;;;;;;;;;;;;;;5013547;28;19932;-76
2020/12/01 10:36:45;;;;;;;;;;;;;;;;;;5025864;28;19916;-77
2020/12/01 10:39:11;;;;;;;;;;;;;;;;;;5030958;28;19952;-78
2020/12/01 10:41:39;;;;;;;;;;;;;;;;;;5031271;28;19953;-77
2020/12/01 10:44:05;;;;;;;;;;;;;;;;;;5021688;28;19913;-77
2020/12/01 10:46:31;;;;;;;;;;;;;;;;;;5026295;28;19971;-77
2020/12/01 10:48:57;;;;;;;;;;;;;;;;;;5032016;28;19979;-78
2020/12/01 10:51:23;;;;;;;;;;;;;;;;;;5034761;28;20009;-78
2020/12/01 10:53:48;;;;;;;;;;;;;;;;;;5026593;28;19955;-78
2020/12/01 10:56:14;;;;;;;;;;;;;;;;;;5033736;28;19917;-78
2020/12/01 10:58:40;;;;;;;;;;;;;;;;;;5034792;28;19920;-78
2020/12/01 11:01:06;;;;;;;;;;;;;;;;;;5025681;28;19913;-78
2020/12/01 11:03:32;;;;;;;;;;;;;;;;;;5034067;28;19919;-77
2020/12/01 11:05:58;;;;;;;;;;;;;;;;;;5031129;28;19909;-77
2020/12/01 11:08:24;;;;;;;;;;;;;;;;;;5034124;28;19917;-77
2020/12/01 11:10:50;;;;;;;;;;;;;;;;;;5035490;28;19909;-77
2020/12/01 11:13:16;;;;;;;;;;;;;;;;;;5034853;28;19924;-78
2020/12/01 11:15:42;;;;;;;;;;;;;;;;;;5035056;28;19964;-77
2020/12/01 11:18:08;;;;;;;;;;;;;;;;;;5031733;28;19913;-78
2020/12/01 11:20:34;;;;;;;;;;;;;;;;;;5029497;28;19967;-78
2020/12/01 11:22:59;;;;;;;;;;;;;;;;;;5017520;28;19910;-79
2020/12/01 11:25:25;;;;;;;;;;;;;;;;;;5013721;28;20000;-76
2020/12/01 11:27:51;;;;;;;;;;;;;;;;;;5013872;28;19964;-76
2020/12/01 11:30:17;;;;;;;;;;;;;;;;;;5015407;28;20359;-78
2020/12/01 11:32:43;;;;;;;;;;;;;;;;;;5015728;28;19909;-77
2020/12/01 11:35:09;;;;;;;;;;;;;;;;;;5029302;28;19917;-78
2020/12/01 11:37:35;;;;;;;;;;;;;;;;;;5033333;28;19909;-77
2020/12/01 11:40:01;;;;;;;;;;;;;;;;;;5035066;28;19921;-77
2020/12/01 11:42:27;;;;;;;;;;;;;;;;;;5035076;28;19909;-78
2020/12/01 11:44:53;;;;;;;;;;;;;;;;;;5033800;28;19909;-80
2020/12/01 11:47:19;;;;;;;;;;;;;;;;;;5034862;28;19910;-79
2020/12/01 11:49:45;;;;;;;;;;;;;;;;;;5034775;28;20175;-78
2020/12/01 11:52:10;;;;;;;;;;;;;;;;;;5015257;28;19910;-78
2020/12/01 11:54:37;;;;;;;;;;;;;;;;;;5014029;28;19945;-78
2020/12/01 11:57:03;;;;;;;;;;;;;;;;;;5013874;28;19977;-78
2020/12/01 11:59:29;;;;;;;;;;;;;;;;;;5012509;28;19917;-78
2020/12/01 12:01:55;;;;;;;;;;;;;;;;;;5012882;28;19912;-77
2020/12/01 12:04:21;;;;;;;;;;;;;;;;;;5027704;28;19909;-78
2020/12/01 12:06:47;;;;;;;;;;;;;;;;;;5033855;28;19916;-77
2020/12/01 12:09:13;;;;;;;;;;;;;;;;;;5032289;28;19917;-77
2020/12/01 12:11:38;;;;;;;;;;;;;;;;;;5027574;28;19952;-78
2020/12/01 12:14:04;;;;;;;;;;;;;;;;;;5044510;23;19991;-70
2020/12/01 12:16:30;;;;;;;;;;;;;;;;;;5040201;28;20384;-70
2020/12/01 12:18:57;;;;;;;;;;;;;;;;;;5021393;28;20007;-69
2020/12/01 12:21:23;;;;;;;;;;;;;;;;;;5023589;28;19913;-71
2020/12/01 12:23:50;;;;;;;;;;;;;;;;;;5008451;28;19910;-71
2020/12/01 12:26:15;;;;;;;;;;;;;;;;;;5001730;28;19936;-69
2020/12/01 12:28:41;;;;;;;;;;;;;;;;;;5003363;28;19974;-69
2020/12/01 12:31:07;;;;;;;;;;;;;;;;;;5002846;28;20401;-69
2020/12/01 12:33:33;;;;;;;;;;;;;;;;;;5001873;28;20389;-69
2020/12/01 12:35:59;;;;;;;;;;;;;;;;;;5001823;28;19968;-69
2020/12/01 12:38:25;;;;;;;;;;;;;;;;;;5001452;28;19961;-69
2020/12/01 12:40:51;;;;;;;;;;;;;;;;;;5011023;28;19917;-69
2020/12/01 12:43:17;;;;;;;;;;;;;;;;;;5018249;28;19967;-70
2020/12/01 12:45:43;;;;;;;;;;;;;;;;;;5011978;28;20021;-69
2020/12/01 12:48:09;;;;;;;;;;;;;;;;;;5029644;28;20396;-69
2020/12/01 12:50:35;;;;;;;;;;;;;;;;;;5012517;28;19953;-69
2020/12/01 12:53:01;;;;;;;;;;;;;;;;;;5019717;28;20008;-69
2020/12/01 12:55:26;;;;;;;;;;;;;;;;;;5039847;28;19913;-69
2020/12/01 12:57:52;;;;;;;;;;;;;;;;;;5032196;28;19909;-69
2020/12/01 13:00:18;;;;;;;;;;;;;;;;;;5047592;28;20392;-69
2020/12/01 13:02:44;;;;;;;;;;;;;;;;;;5032085;28;19952;-69
2020/12/01 13:05:10;;;;;;;;;;;;;;;;;;5027749;28;20019;-69
2020/12/01 13:07:36;;;;;;;;;;;;;;;;;;5026513;28;20405;-69
2020/12/01 13:10:02;;;;;;;;;;;;;;;;;;5026485;28;20000;-69
2020/12/01 13:12:28;;;;;;;;;;;;;;;;;;5026898;28;20012;-68
2020/12/01 13:14:54;;;;;;;;;;;;;;;;;;5026979;28;19922;-70
2020/12/01 13:17:20;;;;;;;;;;;;;;;;;;5019356;28;20024;-69
2020/12/01 13:19:46;;;;;;;;;;;;;;;;;;5025469;28;19915;-69
2020/12/01 13:22:12;;;;;;;;;;;;;;;;;;5027202;28;20000;-68
2020/12/01 13:24:38;;;;;;;;;;;;;;;;;;5027213;28;19992;-69
2020/12/01 13:27:04;;;;;;;;;;;;;;;;;;5012287;28;19949;-69
2020/12/01 13:29:30;;;;;;;;;;;;;;;;;;5011898;28;20007;-69
2020/12/01 13:31:56;;;;;;;;;;;;;;;;;;5011818;28;20003;-69
2020/12/01 13:34:22;;;;;;;;;;;;;;;;;;5011974;28;19910;-69
2020/12/01 13:36:47;;;;;;;;;;;;;;;;;;5027056;28;19909;-69
2020/12/01 13:39:13;;;;;;;;;;;;;;;;;;5018887;28;20005;-69
2020/12/01 13:41:39;;;;;;;;;;;;;;;;;;5025192;28;19909;-70
2020/12/01 13:44:05;;;;;;;;;;;;;;;;;;5046698;28;19916;-70
2020/12/01 13:46:31;;;;;;;;;;;;;;;;;;5031536;28;19963;-70
2020/12/01 13:48:57;;;;;;;;;;;;;;;;;;5046401;28;20051;-69
2020/12/01 13:51:23;;;;;;;;;;;;;;;;;;5046787;28;19952;-69
2020/12/01 13:53:49;;;;;;;;;;;;;;;;;;5032364;28;19949;-69
2020/12/01 13:56:15;;;;;;;;;;;;;;;;;;5024928;28;20000;-69
2020/12/01 13:58:41;;;;;;;;;;;;;;;;;;5031955;28;19940;-69
2020/12/01 14:01:06;;;;;;;;;;;;;;;;;;5011812;28;19916;-69
2020/12/01 14:03:32;;;;;;;;;;;;;;;;;;5011637;28;19913;-69
2020/12/01 14:05:58;;;;;;;;;;;;;;;;;;5027012;28;20533;-70
2020/12/01 14:08:24;;;;;;;;;;;;;;;;;;5030486;28;19965;-70
2020/12/01 14:10:50;;;;;;;;;;;;;;;;;;5037429;28;19993;-69
2020/12/01 14:13:16;;;;;;;;;;;;;;;;;;5046225;28;19955;-69
2020/12/01 14:15:42;;;;;;;;;;;;;;;;;;5046693;28;20398;-69
2020/12/01 14:18:08;;;;;;;;;;;;;;;;;;5046750;28;20293;-69
2020/12/01 14:20:34;;;;;;;;;;;;;;;;;;5033305;28;19916;-68
2020/12/01 14:23:00;;;;;;;;;;;;;;;;;;5050304;28;19957;-69
2020/12/01 14:25:26;;;;;;;;;;;;;;;;;;5035310;28;19909;-69
2020/12/01 14:27:52;;;;;;;;;;;;;;;;;;5049961;28;19961;-68
2020/12/01 14:30:17;;;;;;;;;;;;;;;;;;5019620;28;19937;-69
2020/12/01 14:32:43;;;;;;;;;;;;;;;;;;5030356;28;19956;-69
2020/12/01 14:35:09;;;;;;;;;;;;;;;;;;5013784;28;19955;-69
2020/12/01 14:37:35;;;;;;;;;;;;;;;;;;5019773;28;19909;-69
2020/12/01 14:40:01;;;;;;;;;;;;;;;;;;5018702;28;20003;-69
2020/12/01 14:42:27;;;;;;;;;;;;;;;;;;5020492;28;19917;-69
2020/12/01 14:44:53;;;;;;;;;;;;;;;;;;5046044;28;19909;-70
2020/12/01 14:47:19;;;;;;;;;;;;;;;;;;5034608;28;19914;-70
2020/12/01 14:49:45;;;;;;;;;;;;;;;;;;5034521;28;20349;-70
2020/12/01 14:52:11;;;;;;;;;;;;;;;;;;5041800;28;19992;-70
2020/12/01 14:54:37;;;;;;;;;;;;;;;;;;5013083;28;19945;-70
2020/12/01 14:57:03;;;;;;;;;;;;;;;;;;5037776;28;19996;-70
2020/12/01 14:59:29;;;;;;;;;;;;;;;;;;5034317;28;20431;-69
2020/12/01 15:01:55;;;;;;;;;;;;;;;;;;5049901;28;20007;-70
2020/12/01 15:04:21;;;;;;;;;;;;;;;;;;5034145;28;20008;-70
2020/12/01 15:06:47;;;;;;;;;;;;;;;;;;5046535;28;19917;-69
2020/12/01 15:09:13;;;;;;;;;;;;;;;;;;5041072;28;20329;-70
2020/12/01 15:11:38;;;;;;;;;;;;;;;;;;5034145;28;20308;-69
2020/12/01 15:14:04;;;;;;;;;;;;;;;;;;5049642;28;19924;-70
2020/12/01 15:16:30;;;;;;;;;;;;;;;;;;5034398;28;19956;-70
2020/12/01 15:18:56;;;;;;;;;;;;;;;;;;5048976;28;19976;-69
2020/12/01 15:21:22;;;;;;;;;;;;;;;;;;5033885;28;19924;-70
2020/12/01 15:23:48;;;;;;;;;;;;;;;;;;5033743;28;20358;-69
2020/12/01 15:26:14;;;;;;;;;;;;;;;;;;5049241;28;19909;-70
2020/12/01 15:28:40;;;;;;;;;;;;;;;;;;5025764;28;20045;-70
2020/12/01 15:31:06;;;;;;;;;;;;;;;;;;5015741;28;19954;-69
2020/12/01 15:33:32;;;;;;;;;;;;;;;;;;5013346;28;19960;-70
2020/12/01 15:36:01;;;;;;;;;;;;;;;;;;5029538;28;19996;-70
2020/12/01 15:38:27;;;;;;;;;;;;;;;;;;5013405;28;19913;-70
2020/12/01 15:40:53;;;;;;;;;;;;;;;;;;5021302;28;20472;-69
2020/12/01 15:43:19;;;;;;;;;;;;;;;;;;5033069;28;19910;-69
2020/12/01 15:45:45;;;;;;;;;;;;;;;;;;5033544;28;19909;-69
2020/12/01 15:48:11;;;;;;;;;;;;;;;;;;5013167;28;19914;-70
2020/12/01 15:50:37;;;;;;;;;;;;;;;;;;5013945;28;19945;-70
2020/12/01 15:53:03;;;;;;;;;;;;;;;;;;5035971;28;19939;-70
2020/12/01 15:55:28;;;;;;;;;;;;;;;;;;5025757;28;19909;-68
2020/12/01 15:57:54;;;;;;;;;;;;;;;;;;5033272;28;19952;-69
2020/12/01 16:00:20;;;;;;;;;;;;;;;;;;5033316;28;19916;-70
2020/12/01 16:02:46;;;;;;;;;;;;;;;;;;5033155;28;19941;-70
2020/12/01 16:05:12;;;;;;;;;;;;;;;;;;5033210;28;19955;-70
2020/12/01 16:07:38;;;;;;;;;;;;;;;;;;5032690;28;20418;-70
2020/12/01 16:10:04;;;;;;;;;;;;;;;;;;5026802;28;20000;-70
2020/12/01 16:12:30;;;;;;;;;;;;;;;;;;5040875;28;19956;-70
2020/12/01 16:14:56;;;;;;;;;;;;;;;;;;5048467;28;19913;-69
2020/12/01 16:17:22;;;;;;;;;;;;;;;;;;5032817;28;20019;-69
2020/12/01 16:19:47;;;;;;;;;;;;;;;;;;5032795;28;20444;-70
2020/12/01 16:22:13;;;;;;;;;;;;;;;;;;5033035;28;20020;-70
2020/12/01 16:24:39;;;;;;;;;;;;;;;;;;5047961;28;19962;-70
2020/12/01 16:27:05;;;;;;;;;;;;;;;;;;5033261;28;20351;-70
2020/12/01 16:29:31;;;;;;;;;;;;;;;;;;5002575;28;20366;-69
2020/12/01 16:31:57;;;;;;;;;;;;;;;;;;5008396;28;20369;-70
2020/12/01 16:34:23;;;;;;;;;;;;;;;;;;5008125;28;20008;-70
2020/12/01 16:36:49;;;;;;;;;;;;;;;;;;4993196;28;19957;-70
2020/12/01 16:39:15;;;;;;;;;;;;;;;;;;5013152;28;19916;-70
2020/12/01 16:41:41;;;;;;;;;;;;;;;;;;5020558;28;19910;-70
2020/12/01 16:44:08;;;;;;;;;;;;;;;;;;5029940;28;19913;-70
2020/12/01 16:46:34;;;;;;;;;;;;;;;;;;5032497;28;19909;-70
2020/12/01 16:49:00;;;;;;;;;;;;;;;;;;5047506;28;20047;-70
2020/12/01 16:51:26;;;;;;;;;;;;;;;;;;5032494;28;19917;-70
2020/12/01 16:53:52;;;;;;;;;;;;;;;;;;5025060;28;19921;-70
2020/12/01 16:56:18;;;;;;;;;;;;;;;;;;5023942;28;20288;-70
2020/12/01 16:58:44;;;;;;;;;;;;;;;;;;5047471;28;19909;-70
2020/12/01 17:01:10;;;;;;;;;;;;;;;;;;5032312;28;19909;-70
2020/12/01 17:03:35;;;;;;;;;;;;;;;;;;5047227;28;19909;-69
2020/12/01 17:06:01;;;;;;;;;;;;;;;;;;5047348;28;19910;-69
2020/12/01 17:08:27;;;;;;;;;;;;;;;;;;5031698;28;20400;-68
2020/12/01 17:10:53;;;;;;;;;;;;;;;;;;5039098;28;19993;-70
2020/12/01 17:13:19;;;;;;;;;;;;;;;;;;5019940;28;19932;-70
2020/12/01 17:15:45;;;;;;;;;;;;;;;;;;5026305;28;20459;-68